Time;durP1;ratioP1;P1;durP2;ratioP2;P2;SDS_P1;SDS_P2;PMS_P1;PMS_P2;Temp;Humidity;BMP_temperature;BMP_pressure;BME280_temperature;BME280_humidity;BME280_pressure;Samples;Min_cycle;Max_cycle;Signal;HPM_P1;HPM_P2
2022/10/10 00:01:06;;;;;;;3.53;1.58;;;;;;;13.53;95.97;101200.13;5023795;28;20356;-86
2022/10/10 00:03:31;;;;;;;4.90;1.60;;;;;;;13.54;96.69;101191.31;5010446;28;20254;-85
2022/10/10 00:05:57;;;;;;;5.03;1.33;;;;;;;13.50;96.87;101196.97;5027646;28;20033;-85
2022/10/10 00:08:22;;;;;;;6.85;1.45;;;;;;;13.57;94.84;101200.66;5007885;28;20026;-85
2022/10/10 00:10:48;;;;;;;5.15;1.08;;;;;;;14.25;87.56;101198.41;5008953;28;20029;-85
2022/10/10 00:13:13;;;;;;;4.90;1.48;;;;;;;14.40;88.86;101198.69;5023037;28;20165;-87
2022/10/10 00:15:39;;;;;;;6.07;1.33;;;;;;;14.18;90.63;101198.16;5026787;28;20029;-86
2022/10/10 00:18:04;;;;;;;1.70;1.10;;;;;;;13.99;92.46;101189.66;5024871;28;20026;-85
2022/10/10 00:20:30;;;;;;;3.28;1.42;;;;;;;13.87;94.06;101187.25;5026158;28;20120;-85
2022/10/10 00:22:55;;;;;;;4.05;1.52;;;;;;;13.70;94.58;101195.09;5025187;28;20057;-85
2022/10/10 00:25:20;;;;;;;4.18;1.58;;;;;;;13.63;95.00;101188.78;5026626;28;20118;-85
2022/10/10 00:27:46;;;;;;;2.85;0.98;;;;;;;13.59;95.04;101196.13;5023950;28;20128;-86
2022/10/10 00:30:11;;;;;;;2.70;1.58;;;;;;;13.57;96.29;101196.25;5024494;28;20478;-86
2022/10/10 00:32:37;;;;;;;5.55;1.80;;;;;;;13.53;96.31;101192.28;5023467;28;20033;-87
2022/10/10 00:35:04;;;;;;;4.38;1.65;;;;;;;13.51;96.82;101194.22;5006691;28;20033;-86
2022/10/10 00:37:29;;;;;;;6.13;1.65;;;;;;;13.44;96.78;101194.94;5027320;28;20022;-85
2022/10/10 00:39:55;;;;;;;4.03;1.77;;;;;;;13.40;97.04;101198.81;5005963;28;20198;-85
2022/10/10 00:42:20;;;;;;;4.90;1.75;;;;;;;13.37;97.81;101199.09;5023942;28;20045;-85
2022/10/10 00:45:18;;;;;;;4.07;1.70;;;;;;;13.28;98.17;101187.72;5036520;28;20049;-85
2022/10/10 00:47:44;;;;;;;3.92;1.67;;;;;;;13.23;98.62;101195.19;5000734;28;20128;-85
2022/10/10 00:50:09;;;;;;;3.58;1.75;;;;;;;13.18;98.29;101200.03;5033555;28;20329;-85
2022/10/10 00:52:35;;;;;;;4.25;1.35;;;;;;;13.17;99.00;101203.63;5028691;28;20124;-85
2022/10/10 00:55:00;;;;;;;2.75;2.10;;;;;;;13.15;99.56;101198.50;5028774;28;20037;-85
2022/10/10 00:57:26;;;;;;;2.63;1.63;;;;;;;13.13;99.45;101199.59;5030275;28;20438;-85
2022/10/10 00:59:52;;;;;;;3.83;1.35;;;;;;;13.08;99.49;101197.41;5038908;28;20039;-85
2022/10/10 01:02:18;;;;;;;6.03;2.47;;;;;;;13.05;99.84;101197.69;5037414;28;20035;-85
2022/10/10 01:04:43;;;;;;;7.18;1.67;;;;;;;13.03;100.00;101194.41;5010859;28;20125;-85
2022/10/10 01:07:11;;;;;;;3.75;1.52;;;;;;;13.05;100.00;101187.22;5029360;28;20033;-85
2022/10/10 01:09:39;;;;;;;9.45;2.03;;;;;;;12.98;100.00;101182.72;5045346;28;20043;-84
2022/10/10 01:12:11;;;;;;;5.22;1.55;;;;;;;12.99;99.58;101184.34;5033846;28;20029;-85
2022/10/10 01:15:18;;;;;;;2.58;1.90;;;;;;;12.98;99.58;101175.69;5027968;28;20064;-85
2022/10/10 01:17:57;;;;;;;4.10;1.48;;;;;;;12.94;99.87;101171.69;4952602;28;20146;-85
2022/10/10 01:20:52;;;;;;;4.20;1.80;;;;;;;12.86;100.00;101175.03;4948788;29;20050;-85
2022/10/10 01:23:17;;;;;;;4.78;2.20;;;;;;;12.84;100.00;101170.91;4948746;29;20094;-84
2022/10/10 01:26:13;;;;;;;5.40;1.92;;;;;;;12.76;100.00;101166.38;4958892;28;20038;-86
2022/10/10 01:28:45;;;;;;;5.68;2.40;;;;;;;12.77;100.00;101160.19;4949096;28;20047;-85
2022/10/10 01:31:14;;;;;;;5.15;1.70;;;;;;;12.72;100.00;101165.03;4947320;28;20035;-85
2022/10/10 01:34:06;;;;;;;3.17;1.77;;;;;;;12.67;100.00;101164.63;4946320;28;20151;-86
2022/10/10 01:36:41;;;;;;;7.10;2.28;;;;;;;12.59;100.00;101174.97;4943243;28;20106;-86
2022/10/10 01:39:27;;;;;;;4.07;1.63;;;;;;;12.57;100.00;101164.66;4947377;28;20038;-85
2022/10/10 01:42:03;;;;;;;4.15;2.15;;;;;;;12.63;100.00;101168.50;4942332;29;20055;-85
2022/10/10 01:44:29;;;;;;;2.30;1.65;;;;;;;12.62;100.00;101161.63;4944912;28;20093;-85
2022/10/10 01:46:54;;;;;;;4.78;2.15;;;;;;;12.77;100.00;101164.59;4947489;28;20039;-84
2022/10/10 01:49:27;;;;;;;4.28;1.92;;;;;;;12.95;99.73;101158.47;4947103;28;20138;-84
2022/10/10 01:52:20;;;;;;;4.97;1.75;;;;;;;12.95;99.96;101157.66;4951322;28;20056;-84
2022/10/10 01:55:23;;;;;;;7.80;2.13;;;;;;;12.91;100.00;101162.34;4975034;28;20050;-85
2022/10/10 01:58:16;;;;;;;4.00;1.60;;;;;;;12.93;100.00;101160.41;5022239;28;20116;-84
2022/10/10 02:00:52;;;;;;;2.83;1.42;;;;;;;12.88;100.00;101156.56;5020193;28;20037;-85
2022/10/10 02:03:29;;;;;;;3.42;1.60;;;;;;;12.89;100.00;101156.44;5008390;28;20104;-85
2022/10/10 02:06:06;;;;;;;3.97;2.00;;;;;;;12.88;100.00;101160.00;5006199;28;20186;-85
2022/10/10 02:08:36;;;;;;;4.70;1.50;;;;;;;12.84;100.00;101160.44;5004950;28;20042;-85
2022/10/10 02:11:08;;;;;;;3.55;2.38;;;;;;;12.82;100.00;101167.59;5010440;28;20022;-84
2022/10/10 02:13:47;;;;;;;4.03;1.80;;;;;;;12.85;100.00;101159.47;5016213;28;20183;-85
2022/10/10 02:16:18;;;;;;;5.50;2.33;;;;;;;12.90;100.00;101159.88;5009328;28;20037;-85
2022/10/10 02:18:46;;;;;;;4.97;2.28;;;;;;;12.84;100.00;101161.25;5006475;28;20493;-85
2022/10/10 02:21:14;;;;;;;5.13;2.10;;;;;;;12.83;100.00;101158.78;5008762;28;20112;-85
2022/10/10 02:23:42;;;;;;;2.70;1.58;;;;;;;12.83;100.00;101153.56;5007361;28;20037;-85
2022/10/10 02:26:12;;;;;;;3.35;1.60;;;;;;;12.81;100.00;101152.88;5005997;28;20037;-86
2022/10/10 02:28:44;;;;;;;4.70;2.15;;;;;;;12.86;100.00;101153.28;5008441;28;20038;-85
2022/10/10 02:31:17;;;;;;;3.38;1.58;;;;;;;12.92;100.00;101156.16;5021745;28;20057;-85
2022/10/10 02:33:55;;;;;;;3.30;1.88;;;;;;;12.89;100.00;101151.22;5006659;28;20029;-85
2022/10/10 02:36:22;;;;;;;5.60;2.10;;;;;;;12.82;100.00;101144.91;5005693;28;20486;-85
2022/10/10 02:38:49;;;;;;;5.28;2.13;;;;;;;12.81;100.00;101140.63;5013472;28;20120;-85
2022/10/10 02:41:17;;;;;;;5.75;1.73;;;;;;;12.82;100.00;101151.91;5018438;28;20033;-86
2022/10/10 02:43:43;;;;;;;4.32;1.80;;;;;;;12.77;100.00;101144.50;5033653;28;20453;-85
2022/10/10 02:46:12;;;;;;;4.70;1.90;;;;;;;12.76;100.00;101139.44;5027391;28;20029;-85
2022/10/10 02:48:38;;;;;;;4.47;2.00;;;;;;;12.71;100.00;101134.63;5026832;28;20025;-85
2022/10/10 02:51:05;;;;;;;2.97;1.92;;;;;;;12.71;100.00;101139.03;5026843;28;20060;-84
2022/10/10 02:53:30;;;;;;;3.08;1.73;;;;;;;12.75;100.00;101136.00;5047445;28;20115;-83
2022/10/10 02:55:56;;;;;;;6.82;2.05;;;;;;;12.77;100.00;101138.44;5032592;28;20037;-85
2022/10/10 02:58:21;;;;;;;2.20;1.33;;;;;;;12.78;100.00;101140.09;5010939;28;20076;-84
2022/10/10 03:00:47;;;;;;;5.40;2.35;;;;;;;12.76;100.00;101144.66;5013649;28;20086;-87
2022/10/10 03:03:12;;;;;;;5.05;2.35;;;;;;;12.74;100.00;101139.56;5029026;28;20477;-86
2022/10/10 03:05:38;;;;;;;5.20;2.45;;;;;;;12.74;100.00;101144.81;5024731;28;20194;-84
2022/10/10 03:08:03;;;;;;;5.90;1.90;;;;;;;12.74;100.00;101139.56;5027775;28;20874;-85
2022/10/10 03:10:29;;;;;;;3.67;2.17;;;;;;;12.74;100.00;101142.19;5026826;28;20651;-85
2022/10/10 03:12:54;;;;;;;2.60;1.75;;;;;;;12.76;100.00;101132.38;5025493;28;20033;-84
2022/10/10 03:15:19;;;;;;;3.05;2.50;;;;;;;12.79;100.00;101134.72;5007697;28;20029;-85
2022/10/10 03:17:45;;;;;;;4.78;2.33;;;;;;;12.81;100.00;101134.56;5025561;28;20029;-85
2022/10/10 03:20:10;;;;;;;5.45;2.28;;;;;;;12.84;100.00;101127.28;5017890;28;20025;-84
2022/10/10 03:22:36;;;;;;;4.80;2.58;;;;;;;12.85;100.00;101126.31;5014817;28;20052;-85
2022/10/10 03:25:02;;;;;;;5.65;2.15;;;;;;;12.84;100.00;101126.44;5023804;28;20028;-87
2022/10/10 03:27:28;;;;;;;3.28;2.08;;;;;;;12.88;100.00;101126.03;5027961;28;20460;-86
2022/10/10 03:29:53;;;;;;;3.83;2.25;;;;;;;12.91;100.00;101119.69;5029015;28;20028;-84
2022/10/10 03:32:18;;;;;;;2.88;2.03;;;;;;;12.90;100.00;101123.25;5036450;28;20382;-86
2022/10/10 03:34:44;;;;;;;5.05;2.55;;;;;;;12.92;100.00;101118.72;5026906;28;20025;-85
2022/10/10 03:37:09;;;;;;;4.25;2.40;;;;;;;12.94;100.00;101124.63;5029237;28;20036;-85
2022/10/10 03:39:35;;;;;;;4.40;2.47;;;;;;;12.99;100.00;101130.25;5007918;28;20108;-85
2022/10/10 03:42:00;;;;;;;3.53;2.20;;;;;;;12.98;100.00;101126.00;5003839;28;20053;-85
2022/10/10 03:44:26;;;;;;;5.35;2.50;;;;;;;12.98;100.00;101127.78;5008070;28;20042;-84
2022/10/10 03:46:51;;;;;;;3.95;1.95;;;;;;;12.95;100.00;101121.88;5011032;28;20484;-85
2022/10/10 03:49:17;;;;;;;5.97;2.22;;;;;;;12.90;100.00;101124.09;5007142;28;20057;-84
2022/10/10 03:51:42;;;;;;;5.68;2.17;;;;;;;12.90;100.00;101124.09;5011584;28;20030;-85
2022/10/10 03:54:08;;;;;;;4.03;2.30;;;;;;;13.00;100.00;101123.22;5008078;28;20504;-85
2022/10/10 03:56:33;;;;;;;3.85;1.70;;;;;;;13.10;100.00;101118.78;5017182;28;20034;-85
2022/10/10 03:58:59;;;;;;;3.67;1.88;;;;;;;13.17;100.00;101119.88;5005191;28;20033;-85
2022/10/10 04:01:26;;;;;;;2.70;1.67;;;;;;;13.22;100.00;101112.44;5004753;28;20501;-85
2022/10/10 04:03:52;;;;;;;5.45;2.65;;;;;;;13.23;100.00;101114.88;5005089;28;20556;-85
2022/10/10 04:06:17;;;;;;;8.13;1.90;;;;;;;13.19;100.00;101110.94;5019316;28;20033;-85
2022/10/10 04:08:43;;;;;;;2.97;1.88;;;;;;;13.20;100.00;101116.97;4999761;28;20504;-85
2022/10/10 04:11:08;;;;;;;4.35;2.40;;;;;;;13.21;100.00;101110.78;5005271;28;20164;-84
2022/10/10 04:13:34;;;;;;;2.90;1.70;;;;;;;13.21;100.00;101116.00;5005871;28;20421;-85
2022/10/10 04:15:59;;;;;;;3.05;1.95;;;;;;;13.17;100.00;101109.41;5005341;28;20044;-85
2022/10/10 04:18:25;;;;;;;5.03;2.22;;;;;;;13.18;100.00;101122.34;5003648;28;20026;-84
2022/10/10 04:20:51;;;;;;;2.95;1.80;;;;;;;13.19;100.00;101120.56;5011041;28;20474;-84
2022/10/10 04:23:17;;;;;;;5.45;2.72;;;;;;;13.24;100.00;101118.31;5010790;28;20485;-85
2022/10/10 04:25:43;;;;;;;2.78;2.35;;;;;;;13.26;100.00;101124.22;5010756;28;20119;-84
2022/10/10 04:28:13;;;;;;;4.95;2.10;;;;;;;13.28;100.00;101127.53;5010856;28;20030;-84
2022/10/10 04:30:39;;;;;;;4.40;2.35;;;;;;;13.26;100.00;101113.75;5013474;28;20108;-84
2022/10/10 04:33:05;;;;;;;5.50;2.60;;;;;;;13.22;100.00;101115.03;5013178;28;20068;-84
2022/10/10 04:35:30;;;;;;;6.38;2.13;;;;;;;13.17;100.00;101104.19;5009859;28;20081;-85
2022/10/10 04:37:55;;;;;;;5.00;2.08;;;;;;;13.18;100.00;101106.66;5005131;28;20026;-85
2022/10/10 04:40:21;;;;;;;4.20;2.42;;;;;;;13.18;100.00;101093.56;5009981;28;20474;-85
2022/10/10 04:42:46;;;;;;;4.28;2.80;;;;;;;13.21;100.00;101089.84;5018832;28;20045;-84
2022/10/10 04:45:12;;;;;;;4.95;2.42;;;;;;;13.19;100.00;101081.31;5035363;28;20029;-85
2022/10/10 04:47:37;;;;;;;5.57;2.28;;;;;;;13.20;100.00;101078.56;5030174;28;20086;-85
2022/10/10 04:50:04;;;;;;;4.57;2.42;;;;;;;13.20;100.00;101083.78;5023419;28;20052;-84
2022/10/10 04:52:29;;;;;;;4.43;3.17;;;;;;;13.29;100.00;101082.06;5033991;28;20113;-85
2022/10/10 04:54:54;;;;;;;5.00;2.78;;;;;;;13.40;100.00;101086.28;5029953;28;20040;-84
2022/10/10 04:57:20;;;;;;;3.33;2.22;;;;;;;13.44;100.00;101090.25;5033203;28;20030;-85
2022/10/10 04:59:46;;;;;;;8.23;2.65;;;;;;;13.44;100.00;101095.47;5027482;28;20021;-85
2022/10/10 05:02:11;;;;;;;6.75;2.75;;;;;;;13.45;100.00;101097.13;5029896;28;20378;-85
2022/10/10 05:04:37;;;;;;;5.13;2.97;;;;;;;13.43;100.00;101107.75;5024619;28;20029;-85
2022/10/10 05:07:03;;;;;;;9.45;2.45;;;;;;;13.43;100.00;101107.75;5025801;28;20124;-85
2022/10/10 05:09:28;;;;;;;7.32;2.28;;;;;;;13.39;100.00;101105.56;5025426;28;20025;-85
2022/10/10 05:11:53;;;;;;;11.88;2.88;;;;;;;13.39;100.00;101113.41;5028085;28;20036;-84
2022/10/10 05:14:19;;;;;;;10.98;2.75;;;;;;;13.36;100.00;101104.06;5025514;28;20698;-85
2022/10/10 05:16:44;;;;;;;3.53;2.92;;;;;;;13.32;100.00;101114.97;5029682;28;20030;-85
2022/10/10 05:19:10;;;;;;;4.38;2.70;;;;;;;13.29;100.00;101118.69;5027342;28;20119;-84
2022/10/10 05:21:35;;;;;;;4.07;2.20;;;;;;;13.28;100.00;101123.09;5025662;28;20037;-84
2022/10/10 05:24:01;;;;;;;6.75;3.03;;;;;;;13.25;100.00;101125.19;5010569;28;20057;-85
2022/10/10 05:26:27;;;;;;;4.65;2.88;;;;;;;13.19;100.00;101125.81;5030441;28;20811;-84
2022/10/10 05:28:53;;;;;;;8.50;3.67;;;;;;;13.20;100.00;101125.66;5025330;28;20029;-85
2022/10/10 05:31:18;;;;;;;7.55;3.50;;;;;;;13.18;100.00;101126.78;5011466;28;20026;-85
2022/10/10 05:33:44;;;;;;;5.43;2.97;;;;;;;13.14;100.00;101122.75;5026889;28;20047;-85
2022/10/10 05:36:12;;;;;;;4.10;2.85;;;;;;;13.15;100.00;101127.03;5026166;28;20396;-85
2022/10/10 05:38:39;;;;;;;5.43;2.47;;;;;;;13.19;100.00;101128.41;5015052;28;20036;-85
2022/10/10 05:41:05;;;;;;;9.65;4.40;;;;;;;13.21;100.00;101126.47;5040124;28;20030;-84
2022/10/10 05:43:31;;;;;;;8.43;3.13;;;;;;;13.23;100.00;101124.53;5014530;28;20046;-84
2022/10/10 05:45:57;;;;;;;6.00;3.70;;;;;;;13.28;100.00;101119.66;5028557;28;20172;-84
2022/10/10 05:48:23;;;;;;;5.78;3.78;;;;;;;13.28;100.00;101110.03;5046302;28;20091;-85
2022/10/10 05:50:51;;;;;;;6.28;4.13;;;;;;;13.29;100.00;101110.84;5024192;28;20025;-85
2022/10/10 05:53:17;;;;;;;8.63;4.18;;;;;;;13.30;100.00;101120.34;5043830;28;20061;-84
2022/10/10 05:55:43;;;;;;;4.15;3.60;;;;;;;13.33;100.00;101125.28;5040654;28;20060;-84
2022/10/10 05:58:09;;;;;;;5.68;3.28;;;;;;;13.34;100.00;101126.13;5049059;28;20078;-84
2022/10/10 06:00:35;;;;;;;3.63;3.13;;;;;;;13.38;100.00;101137.94;5028262;28;20238;-84
2022/10/10 06:03:01;;;;;;;4.93;3.58;;;;;;;13.41;100.00;101133.25;5027901;28;20560;-84
2022/10/10 06:05:27;;;;;;;10.82;3.47;;;;;;;13.46;100.00;101128.38;5009529;28;20045;-84
2022/10/10 06:07:52;;;;;;;6.40;3.20;;;;;;;13.48;100.00;101126.44;5044167;28;20037;-84
2022/10/10 06:10:18;;;;;;;7.25;3.58;;;;;;;13.52;100.00;101130.41;5027740;28;20029;-84
2022/10/10 06:12:43;;;;;;;11.82;3.38;;;;;;;13.57;100.00;101135.22;5026305;28;20106;-84
2022/10/10 06:15:09;;;;;;;7.82;3.10;;;;;;;13.61;100.00;101137.41;5009391;28;20025;-83
2022/10/10 06:17:35;;;;;;;6.15;3.38;;;;;;;13.67;100.00;101138.59;5028548;28;20069;-85
2022/10/10 06:20:00;;;;;;;6.32;3.53;;;;;;;13.73;100.00;101142.41;5026942;28;20055;-85
2022/10/10 06:22:26;;;;;;;7.85;4.05;;;;;;;13.77;100.00;101143.75;5019947;28;20025;-85
2022/10/10 06:24:52;;;;;;;4.47;3.13;;;;;;;13.78;100.00;101140.16;5028651;28;20025;-85
2022/10/10 06:27:20;;;;;;;8.32;3.03;;;;;;;13.89;100.00;101147.81;5009292;28;20053;-85
2022/10/10 06:29:46;;;;;;;4.25;2.72;;;;;;;13.95;100.00;101147.22;5026076;28;20076;-85
2022/10/10 06:32:11;;;;;;;5.70;2.90;;;;;;;14.03;100.00;101159.56;5009916;28;20501;-85
2022/10/10 06:34:37;;;;;;;6.65;3.17;;;;;;;14.12;100.00;101149.00;5010347;28;20104;-85
2022/10/10 06:37:02;;;;;;;6.63;3.28;;;;;;;14.18;100.00;101153.63;5027278;28;20029;-84
2022/10/10 06:39:28;;;;;;;5.90;2.17;;;;;;;14.24;100.00;101162.69;5032992;28;20041;-84
2022/10/10 06:41:53;;;;;;;4.88;2.65;;;;;;;14.28;100.00;101151.75;5004015;28;20061;-84
2022/10/10 06:44:19;;;;;;;6.15;3.50;;;;;;;14.38;100.00;101161.31;5009801;28;20037;-83
2022/10/10 06:46:44;;;;;;;3.88;2.25;;;;;;;14.47;100.00;101160.44;5014383;28;20033;-84
2022/10/10 06:49:10;;;;;;;6.10;2.65;;;;;;;14.53;100.00;101162.47;5007602;28;20044;-84
2022/10/10 06:51:37;;;;;;;5.97;2.20;;;;;;;14.54;100.00;101159.69;5008160;28;20572;-84
2022/10/10 06:54:03;;;;;;;7.32;2.30;;;;;;;14.58;100.00;101162.81;5007174;28;20381;-84
2022/10/10 06:56:28;;;;;;;4.72;2.13;;;;;;;14.59;100.00;101161.84;5006581;28;20034;-85
2022/10/10 06:58:54;;;;;;;7.72;2.22;;;;;;;14.62;100.00;101166.78;5007756;28;20100;-84
2022/10/10 07:01:21;;;;;;;6.30;3.00;;;;;;;14.66;100.00;101154.97;5004853;28;20377;-85
2022/10/10 07:03:47;;;;;;;5.95;2.80;;;;;;;14.72;100.00;101158.78;5004954;28;20045;-83
2022/10/10 07:06:14;;;;;;;5.80;3.42;;;;;;;14.78;100.00;101156.38;5004368;28;20497;-84
2022/10/10 07:08:40;;;;;;;6.45;2.95;;;;;;;14.86;100.00;101153.81;5007605;28;20022;-84
2022/10/10 07:11:07;;;;;;;6.90;4.43;;;;;;;14.95;100.00;101167.78;5004177;28;20022;-84
2022/10/10 07:13:33;;;;;;;4.90;3.45;;;;;;;15.02;100.00;101170.63;5001039;28;20084;-84
2022/10/10 07:15:59;;;;;;;5.97;3.45;;;;;;;15.05;100.00;101170.31;5004246;28;20133;-84
2022/10/10 07:18:25;;;;;;;8.48;3.55;;;;;;;15.08;100.00;101177.88;5000170;28;20547;-84
2022/10/10 07:20:55;;;;;;;4.28;3.22;;;;;;;15.08;100.00;101173.44;5010784;28;20030;-84
2022/10/10 07:23:20;;;;;;;5.88;3.38;;;;;;;15.09;100.00;101180.34;5012791;28;20519;-84
2022/10/10 07:25:46;;;;;;;5.32;3.25;;;;;;;15.08;100.00;101180.50;5004412;28;20022;-83
2022/10/10 07:28:11;;;;;;;8.65;3.35;;;;;;;15.09;100.00;101184.75;5006489;28;20026;-84
2022/10/10 07:30:42;;;;;;;5.88;2.83;;;;;;;15.10;100.00;101178.53;5007784;28;20038;-84
2022/10/10 07:33:08;;;;;;;7.03;2.72;;;;;;;15.16;100.00;101181.34;5006189;28;20153;-85
2022/10/10 07:35:34;;;;;;;8.10;2.70;;;;;;;15.19;100.00;101180.19;5005607;28;20191;-84
2022/10/10 07:38:00;;;;;;;7.65;2.88;;;;;;;15.20;100.00;101187.09;5007620;28;20473;-84
2022/10/10 07:40:25;;;;;;;6.80;2.05;;;;;;;15.19;100.00;101190.69;5003835;28;20026;-84
2022/10/10 07:42:50;;;;;;;2.75;1.80;;;;;;;15.18;100.00;101189.06;5019239;28;20527;-85
2022/10/10 07:45:16;;;;;;;7.57;2.47;;;;;;;15.16;100.00;101194.47;5009339;28;20112;-85
2022/10/10 07:47:42;;;;;;;5.22;2.20;;;;;;;15.13;100.00;101192.16;5026277;28;20358;-85
2022/10/10 07:50:10;;;;;;;5.57;2.10;;;;;;;15.12;100.00;101197.56;5007355;28;20295;-82
2022/10/10 07:52:36;;;;;;;6.43;2.25;;;;;;;15.11;100.00;101190.69;5026038;28;20789;-82
2022/10/10 07:55:02;;;;;;;7.43;2.63;;;;;;;15.16;100.00;101188.38;5010708;28;20021;-81
2022/10/10 07:57:27;;;;;;;6.32;2.58;;;;;;;15.17;100.00;101188.22;5025425;28;20535;-81
2022/10/10 07:59:53;;;;;;;4.85;2.40;;;;;;;15.19;100.00;101190.69;5023676;28;20088;-81
2022/10/10 08:02:18;;;;;;;4.60;2.38;;;;;;;15.18;100.00;101191.69;5018605;28;20123;-82
2022/10/10 08:04:43;;;;;;;6.68;2.75;;;;;;;15.16;100.00;101191.84;5020566;28;20141;-81
2022/10/10 08:07:09;;;;;;;4.15;2.30;;;;;;;15.20;100.00;101193.16;5021093;28;20025;-81
2022/10/10 08:09:35;;;;;;;5.70;2.75;;;;;;;15.27;100.00;101182.88;5025001;28;20041;-81
2022/10/10 08:12:00;;;;;;;3.90;2.40;;;;;;;15.34;100.00;101185.69;5022185;28;20117;-81
2022/10/10 08:14:25;;;;;;;11.00;3.15;;;;;;;15.44;100.00;101187.22;5023594;28;20037;-82
2022/10/10 08:16:51;;;;;;;6.93;2.58;;;;;;;15.56;100.00;101185.97;5023469;28;20520;-82
2022/10/10 08:19:16;;;;;;;6.20;2.25;;;;;;;15.71;99.57;101193.22;5024318;28;20036;-81
2022/10/10 08:21:42;;;;;;;8.13;2.78;;;;;;;15.86;98.74;101191.63;5024999;28;20026;-79
2022/10/10 08:24:07;;;;;;;5.85;2.20;;;;;;;15.93;98.33;101190.00;5025424;28;20485;-80
2022/10/10 08:26:33;;;;;;;6.60;2.53;;;;;;;15.97;97.18;101188.69;5033892;28;20108;-81
2022/10/10 08:28:58;;;;;;;7.18;2.80;;;;;;;16.07;95.63;101189.34;5015336;28;20571;-81
2022/10/10 08:31:23;;;;;;;6.00;2.53;;;;;;;16.18;94.72;101188.22;5022992;28;20030;-81
2022/10/10 08:33:50;;;;;;;3.90;2.42;;;;;;;16.26;93.67;101188.22;5021228;28;20377;-81
2022/10/10 08:36:21;;;;;;;5.55;2.47;;;;;;;16.32;92.67;101187.56;5004417;28;20037;-81
2022/10/10 08:38:47;;;;;;;5.20;2.58;;;;;;;16.38;91.26;101186.09;5022400;28;20469;-81
2022/10/10 08:41:37;;;;;;;4.47;2.15;;;;;;;16.42;89.72;101190.84;5025269;28;20412;-80
2022/10/10 08:44:12;;;;;;;9.70;2.55;;;;;;;16.46;89.54;101186.09;5005637;28;20056;-81
2022/10/10 08:46:47;;;;;;;5.10;2.50;;;;;;;16.54;88.39;101183.47;5023417;28;20025;-81
2022/10/10 08:49:24;;;;;;;10.70;3.15;;;;;;;16.62;87.17;101186.06;5020038;28;20029;-80
2022/10/10 08:51:57;;;;;;;5.03;2.55;;;;;;;16.72;85.51;101181.47;5018497;28;20061;-80
2022/10/10 08:54:25;;;;;;;3.40;2.75;;;;;;;16.77;84.73;101179.16;5016064;28;20031;-81
2022/10/10 08:56:57;;;;;;;4.55;2.67;;;;;;;16.86;85.31;101180.78;5026978;28;20033;-80
2022/10/10 08:59:27;;;;;;;5.38;2.30;;;;;;;16.87;85.05;101178.97;5025983;28;20463;-80
2022/10/10 09:02:03;;;;;;;4.55;3.05;;;;;;;16.89;85.17;101177.81;5022375;28;20362;-80
2022/10/10 09:04:32;;;;;;;7.00;2.70;;;;;;;16.91;84.42;101175.84;5018011;28;20503;-81
2022/10/10 09:07:17;;;;;;;5.20;3.22;;;;;;;16.90;84.58;101176.84;5022523;28;20033;-80
2022/10/10 09:10:00;;;;;;;8.45;3.65;;;;;;;16.97;85.16;101178.78;5025274;28;20041;-80
2022/10/10 09:12:39;;;;;;;6.22;3.63;;;;;;;17.04;84.70;101183.19;5034776;28;20159;-80
2022/10/10 09:15:44;;;;;;;5.97;3.13;;;;;;;17.16;85.08;101187.09;5045032;28;20545;-82
2022/10/10 09:18:44;;;;;;;5.30;2.97;;;;;;;17.21;85.21;101178.69;5012438;28;20389;-81
2022/10/10 09:21:18;;;;;;;6.40;3.17;;;;;;;17.25;86.11;101180.81;5022600;28;20530;-81
2022/10/10 09:23:53;;;;;;;9.18;3.25;;;;;;;17.32;86.54;101180.97;5030512;28;20509;-81
2022/10/10 09:26:25;;;;;;;5.60;3.60;;;;;;;17.40;86.27;101180.94;5030846;28;20369;-81
2022/10/10 09:29:15;;;;;;;10.45;3.50;;;;;;;17.45;84.10;101178.63;5029365;28;20032;-81
2022/10/10 09:31:48;;;;;;;8.15;3.88;;;;;;;17.52;84.58;101176.91;5028830;28;20045;-81
2022/10/10 09:34:40;;;;;;;5.97;3.30;;;;;;;17.64;84.36;101176.53;5029308;28;20466;-81
2022/10/10 09:37:17;;;;;;;4.35;3.60;;;;;;;17.70;85.06;101170.59;5030451;28;20120;-81
2022/10/10 09:39:46;;;;;;;9.43;3.97;;;;;;;17.76;84.59;101176.00;5030292;28;20033;-81
2022/10/10 09:42:21;;;;;;;6.32;4.22;;;;;;;17.78;85.46;101183.72;5027726;28;20054;-81
2022/10/10 09:44:46;;;;;;;6.78;4.63;;;;;;;17.76;86.68;101183.06;5029538;28;20025;-81
2022/10/10 09:47:14;;;;;;;5.57;4.50;;;;;;;17.73;86.37;101175.53;5029968;28;20036;-80
2022/10/10 09:49:41;;;;;;;6.57;5.15;;;;;;;17.72;84.23;101176.50;5028676;28;20087;-80
2022/10/10 09:52:29;;;;;;;6.10;5.20;;;;;;;17.86;80.08;101179.22;5032548;28;20028;-80
2022/10/10 09:55:02;;;;;;;4.53;4.13;;;;;;;17.91;81.27;101186.63;5014119;28;20029;-80
2022/10/10 09:57:32;;;;;;;5.05;4.32;;;;;;;17.88;81.39;101185.16;5030027;28;20033;-81
2022/10/10 09:59:58;;;;;;;6.50;4.65;;;;;;;17.85;80.96;101189.94;5027247;28;20045;-81
2022/10/10 10:02:26;;;;;;;5.22;4.70;;;;;;;17.86;80.55;101186.31;5012035;28;20030;-80
2022/10/10 10:04:53;;;;;;;7.38;4.60;;;;;;;17.90;80.30;101179.69;5028739;28;20034;-81
2022/10/10 10:07:25;;;;;;;6.85;4.57;;;;;;;17.99;79.19;101180.44;5029601;28;20505;-80
2022/10/10 10:09:59;;;;;;;7.38;4.80;;;;;;;18.01;78.96;101181.91;5028767;28;20026;-80
2022/10/10 10:12:29;;;;;;;6.35;4.88;;;;;;;18.02;78.83;101180.91;5028869;28;20037;-81
2022/10/10 10:15:04;;;;;;;5.22;4.30;;;;;;;18.07;78.71;101180.38;5029454;28;20037;-82
2022/10/10 10:17:29;;;;;;;8.90;4.65;;;;;;;18.05;80.08;101177.09;5029290;28;20089;-81
2022/10/10 10:19:55;;;;;;;7.43;4.57;;;;;;;18.11;79.79;101179.88;5027241;28;20128;-81
2022/10/10 10:22:37;;;;;;;5.75;5.03;;;;;;;18.13;79.79;101177.88;5011356;28;20361;-81
2022/10/10 10:25:29;;;;;;;8.85;5.30;;;;;;;18.24;79.00;101172.19;5029521;28;20029;-82
2022/10/10 10:28:19;;;;;;;5.97;4.60;;;;;;;18.47;78.91;101174.78;4974820;28;20049;-81
2022/10/10 10:30:46;;;;;;;5.30;4.10;;;;;;;18.62;78.36;101177.47;5028221;28;20067;-82
2022/10/10 10:33:11;;;;;;;5.40;4.90;;;;;;;18.69;78.87;101170.50;5029387;28;20139;-82
2022/10/10 10:35:36;;;;;;;6.43;4.55;;;;;;;18.74;78.51;101165.50;5027878;28;20113;-82
2022/10/10 10:38:19;;;;;;;6.07;4.80;;;;;;;18.80;78.81;101164.75;5029305;28;20036;-82
2022/10/10 10:40:59;;;;;;;6.30;4.57;;;;;;;18.85;79.04;101170.31;5027852;28;20340;-82
2022/10/10 10:43:37;;;;;;;10.45;5.63;;;;;;;18.92;78.32;101167.75;5028782;28;20350;-82
2022/10/10 10:46:12;;;;;;;6.35;4.32;;;;;;;18.92;78.34;101159.84;5029178;28;20052;-82
2022/10/10 10:48:46;;;;;;;6.18;4.57;;;;;;;18.83;79.36;101163.59;5028512;28;20116;-84
2022/10/10 10:51:35;;;;;;;11.07;5.57;;;;;;;18.82;79.66;101159.31;5009107;28;20571;-81
2022/10/10 10:54:06;;;;;;;6.85;4.85;;;;;;;18.89;79.46;101155.75;5009419;28;20125;-82
2022/10/10 10:56:52;;;;;;;6.13;5.13;;;;;;;18.92;79.38;101156.38;5008831;28;20060;-82
2022/10/10 10:59:40;;;;;;;5.35;4.82;;;;;;;18.97;80.05;101157.47;5010736;28;20044;-82
2022/10/10 11:02:05;;;;;;;8.50;4.93;;;;;;;19.03;80.15;101155.91;5009156;28;20042;-82
2022/10/10 11:04:50;;;;;;;6.13;5.10;;;;;;;19.16;77.85;101143.72;4995324;28;20033;-83
2022/10/10 11:07:29;;;;;;;7.97;5.18;;;;;;;19.21;79.17;101143.97;5028721;28;20069;-82
2022/10/10 11:10:18;;;;;;;9.18;5.53;;;;;;;19.04;78.23;101152.28;5027298;28;20029;-83
2022/10/10 11:13:12;;;;;;;9.13;5.40;;;;;;;19.02;77.77;101143.72;5023702;28;20088;-82
2022/10/10 11:15:44;;;;;;;6.05;4.72;;;;;;;19.08;77.95;101145.63;5009613;28;20037;-82
2022/10/10 11:18:18;;;;;;;12.07;6.20;;;;;;;19.01;79.31;101134.16;5028396;28;20033;-82
2022/10/10 11:20:57;;;;;;;7.85;5.10;;;;;;;18.98;78.93;101134.53;5027347;28;20044;-82
2022/10/10 11:23:48;;;;;;;7.40;5.90;;;;;;;18.94;78.21;101134.06;5028929;28;20128;-81
2022/10/10 11:26:24;;;;;;;7.35;5.28;;;;;;;18.93;78.41;101142.16;5028358;28;20739;-81
2022/10/10 11:28:57;;;;;;;10.60;5.38;;;;;;;18.97;77.94;101138.97;5027339;28;20033;-81
2022/10/10 11:31:32;;;;;;;13.48;6.43;;;;;;;18.98;78.37;101139.81;5019846;28;20364;-81